createdAt,value
2023-02-06T00:00:54.238Z,0
2023-02-06T00:01:55.430Z,0
2023-02-06T00:02:56.535Z,0
2023-02-06T00:03:56.785Z,0
2023-02-06T00:04:56.830Z,0
2023-02-06T00:05:58.198Z,0
2023-02-06T00:06:58.423Z,0
2023-02-06T00:07:58.524Z,0
2023-02-06T00:08:58.880Z,0
2023-02-06T00:10:00.867Z,0
2023-02-06T00:11:00.817Z,0
2023-02-06T00:12:01.801Z,0
2023-02-06T00:13:01.453Z,0
2023-02-06T00:14:02.379Z,0
2023-02-06T00:15:03.657Z,0
2023-02-06T00:16:04.504Z,0
2023-02-06T00:17:04.475Z,0
2023-02-06T00:18:04.853Z,0
2023-02-06T00:19:06.355Z,0
2023-02-06T00:20:05.963Z,0
2023-02-06T00:21:06.590Z,0
2023-02-06T00:22:07.534Z,0
2023-02-06T00:23:08.191Z,0
2023-02-06T00:24:09.147Z,0
2023-02-06T00:25:09.240Z,0
2023-02-06T00:26:09.469Z,0
2023-02-06T00:27:10.079Z,0
2023-02-06T00:28:10.371Z,0
2023-02-06T00:29:10.302Z,0
2023-02-06T00:30:11.868Z,0
2023-02-06T00:31:12.767Z,0
2023-02-06T00:32:11.729Z,0
2023-02-06T00:33:12.433Z,0
2023-02-06T00:34:13.358Z,0
2023-02-06T00:35:14.920Z,0
2023-02-06T00:36:15.102Z,0
2023-02-06T00:37:15.586Z,0
2023-02-06T00:38:15.216Z,0
2023-02-06T00:39:15.859Z,0
2023-02-06T00:40:17.108Z,0
2023-02-06T00:41:17.779Z,0
2023-02-06T00:42:18.735Z,0
2023-02-06T00:43:17.823Z,0
2023-02-06T00:44:18.151Z,0
2023-02-06T00:45:18.909Z,0
2023-02-06T00:46:20.098Z,0
2023-02-06T00:47:20.036Z,0
2023-02-06T00:48:19.939Z,0
2023-02-06T00:49:21.402Z,0
2023-02-06T00:50:21.670Z,0
2023-02-06T00:51:21.887Z,0
2023-02-06T00:52:22.096Z,0
2023-02-06T00:53:23.016Z,0
2023-02-06T00:54:22.916Z,0
2023-02-06T00:55:24.244Z,0
2023-02-06T00:56:24.755Z,0
2023-02-06T00:57:24.729Z,0
2023-02-06T00:58:25.383Z,0
2023-02-06T00:59:26.883Z,0
2023-02-06T01:00:27.079Z,0
2023-02-06T01:01:26.533Z,0
2023-02-06T01:02:28.091Z,0
2023-02-06T01:03:27.736Z,0
2023-02-06T01:04:28.949Z,0
2023-02-06T01:05:28.816Z,0
2023-02-06T01:06:30.021Z,0
2023-02-06T01:07:30.216Z,0
2023-02-06T01:08:30.421Z,0
2023-02-06T01:09:30.901Z,0
2023-02-06T01:10:30.841Z,0
2023-02-06T01:11:32.110Z,0
2023-02-06T01:12:32.374Z,0
2023-02-06T01:13:32.023Z,0
2023-02-06T01:14:33.507Z,0
2023-02-06T01:15:33.969Z,0
2023-02-06T01:16:34.196Z,0
2023-02-06T01:17:33.805Z,0
2023-02-06T01:18:35.008Z,0
2023-02-06T01:19:35.217Z,0
2023-02-06T01:20:35.131Z,0
2023-02-06T01:21:36.054Z,0
2023-02-06T01:22:36.257Z,0
2023-02-06T01:23:36.451Z,0
2023-02-06T01:24:37.652Z,0
2023-02-06T01:25:37.951Z,0
2023-02-06T01:26:38.202Z,0
2023-02-06T01:27:39.141Z,0
2023-02-06T01:28:39.386Z,0
2023-02-06T01:29:39.276Z,0
2023-02-06T01:30:40.317Z,0
2023-02-06T01:31:41.633Z,0
2023-02-06T01:32:41.580Z,0
2023-02-06T01:33:41.204Z,0
2023-02-06T01:34:42.116Z,0
2023-02-06T01:35:43.280Z,0
2023-02-06T01:36:43.466Z,0
2023-02-06T01:37:43.966Z,0
2023-02-06T01:38:43.945Z,0
2023-02-06T01:39:45.162Z,0
2023-02-06T01:40:45.723Z,0
2023-02-06T01:41:45.648Z,0
2023-02-06T01:42:46.715Z,0
2023-02-06T01:43:47.963Z,0
2023-02-06T01:44:47.580Z,0
2023-02-06T01:45:49.509Z,0
2023-02-06T01:46:50.089Z,0
2023-02-06T01:47:50.342Z,0
2023-02-06T01:48:50.829Z,0
2023-02-06T01:49:51.036Z,0
2023-02-06T01:50:52.244Z,0
2023-02-06T01:51:52.733Z,0
2023-02-06T01:52:52.057Z,0
2023-02-06T01:53:53.271Z,0
2023-02-06T01:54:53.751Z,0
2023-02-06T01:55:54.115Z,0
2023-02-06T01:56:54.127Z,0
2023-02-06T01:57:54.679Z,0
2023-02-06T01:58:54.322Z,0
2023-02-06T01:59:55.531Z,0
2023-02-06T02:00:55.757Z,0
2023-02-06T02:01:56.250Z,0
2023-02-06T02:02:56.465Z,0
2023-02-06T02:03:56.370Z,0
2023-02-06T02:04:57.581Z,0
2023-02-06T02:05:58.336Z,0
2023-02-06T02:06:59.246Z,0
2023-02-06T02:08:00.154Z,0
2023-02-06T02:09:03.746Z,0
2023-02-06T02:10:01.974Z,0
2023-02-06T02:11:08.163Z,0
2023-02-06T02:12:02.409Z,0
2023-02-06T02:13:02.772Z,0
2023-02-06T02:14:03.005Z,0
2023-02-06T02:15:03.123Z,0
2023-02-06T02:16:03.625Z,0
2023-02-06T02:17:04.111Z,0
2023-02-06T02:18:03.741Z,0
2023-02-06T02:19:04.379Z,0
2023-02-06T02:20:05.690Z,0
2023-02-06T02:21:06.030Z,0
2023-02-06T02:22:06.971Z,0
2023-02-06T02:23:07.917Z,0
2023-02-06T02:24:08.567Z,0
2023-02-06T02:25:10.050Z,0
2023-02-06T02:26:10.092Z,0
2023-02-06T02:27:10.629Z,0
2023-02-06T02:28:10.929Z,0
2023-02-06T02:29:11.461Z,0
2023-02-06T02:30:11.067Z,0
2023-02-06T02:31:12.711Z,0
2023-02-06T02:32:13.222Z,0
2023-02-06T02:33:12.616Z,0
2023-02-06T02:34:13.522Z,0
2023-02-06T02:35:14.452Z,0
2023-02-06T02:36:15.729Z,0
2023-02-06T02:37:15.356Z,0
2023-02-06T02:38:16.870Z,0
2023-02-06T02:39:17.667Z,0
2023-02-06T02:40:19.400Z,0
2023-02-06T02:41:18.323Z,0
2023-02-06T02:42:19.844Z,0
2023-02-06T02:43:20.103Z,0
2023-02-06T02:44:21.050Z,0
2023-02-06T02:45:20.964Z,0
2023-02-06T02:46:20.896Z,0
2023-02-06T02:47:22.143Z,0
2023-02-06T02:48:21.777Z,0
2023-02-06T02:49:22.417Z,0
2023-02-06T02:50:23.911Z,0
2023-02-06T02:51:23.271Z,0
2023-02-06T02:52:23.897Z,0
2023-02-06T02:53:24.227Z,0
2023-02-06T02:54:25.725Z,0
2023-02-06T02:55:25.716Z,0
2023-02-06T02:56:26.735Z,0
2023-02-06T02:57:28.061Z,0
2023-02-06T02:58:28.584Z,0
2023-02-06T02:59:28.525Z,0
2023-02-06T03:00:28.729Z,0
2023-02-06T03:01:29.168Z,0
2023-02-06T03:02:29.293Z,0
2023-02-06T03:03:30.510Z,0
2023-02-06T03:04:30.459Z,0
2023-02-06T03:05:30.376Z,0
2023-02-06T03:06:31.136Z,0
2023-02-06T03:07:32.626Z,0
2023-02-06T03:08:33.114Z,0
2023-02-06T03:09:32.762Z,0
2023-02-06T03:10:33.980Z,0
2023-02-06T03:11:34.191Z,0
2023-02-06T03:12:35.169Z,0
2023-02-06T03:13:35.887Z,0
2023-02-06T03:14:36.809Z,0
2023-02-06T03:15:38.243Z,0
2023-02-06T03:16:39.121Z,0
2023-02-06T03:17:39.043Z,0
2023-02-06T03:18:39.374Z,0
2023-02-06T03:19:40.564Z,0
2023-02-06T03:20:40.825Z,0
2023-02-06T03:21:40.159Z,0
2023-02-06T03:22:41.072Z,0
2023-02-06T03:23:43.119Z,0
2023-02-06T03:24:43.022Z,0
2023-02-06T03:25:44.371Z,0
2023-02-06T03:26:44.414Z,0
2023-02-06T03:27:45.728Z,0
2023-02-06T03:28:46.283Z,0
2023-02-06T03:29:46.229Z,0
2023-02-06T03:30:46.629Z,0
2023-02-06T03:31:46.232Z,0
2023-02-06T03:32:47.440Z,0
2023-02-06T03:33:47.338Z,0
2023-02-06T03:34:48.530Z,0
2023-02-06T03:35:49.089Z,0
2023-02-06T03:36:49.525Z,0
2023-02-06T03:37:49.864Z,0
2023-02-06T03:38:50.766Z,0
2023-02-06T03:39:51.743Z,0
2023-02-06T03:40:53.239Z,0
2023-02-06T03:41:53.430Z,0
2023-02-06T03:42:53.996Z,0
2023-02-06T03:43:54.520Z,0
2023-02-06T03:44:54.759Z,0
2023-02-06T03:45:55.447Z,0
2023-02-06T03:46:55.769Z,0
2023-02-06T03:47:55.993Z,0
2023-02-06T03:48:56.911Z,0
2023-02-06T03:49:57.119Z,0
2023-02-06T03:50:58.055Z,0
2023-02-06T03:51:58.249Z,0
2023-02-06T03:52:58.598Z,0
2023-02-06T03:53:59.243Z,0
2023-02-06T03:55:00.438Z,0
2023-02-06T03:56:01.351Z,0
2023-02-06T03:57:02.111Z,0
2023-02-06T03:58:03.088Z,0
2023-02-06T03:59:03.078Z,0
2023-02-06T04:00:04.070Z,0
2023-02-06T04:01:05.093Z,0
2023-02-06T04:02:06.449Z,0
2023-02-06T04:03:06.671Z,0
2023-02-06T04:04:06.876Z,0
2023-02-06T04:05:07.790Z,0
2023-02-06T04:06:08.698Z,0
2023-02-06T04:07:09.755Z,0
2023-02-06T04:08:09.961Z,0
2023-02-06T04:09:10.161Z,0
2023-02-06T04:10:10.788Z,0
2023-02-06T04:11:11.427Z,0
2023-02-06T04:12:12.935Z,0
2023-02-06T04:13:13.169Z,0
2023-02-06T04:14:13.409Z,0
2023-02-06T04:15:14.062Z,0
2023-02-06T04:16:15.458Z,0
2023-02-06T04:17:20.828Z,0
2023-02-06T04:18:17.951Z,0
2023-02-06T04:19:17.142Z,0
2023-02-06T04:20:17.394Z,0
2023-02-06T04:21:18.647Z,0
2023-02-06T04:22:18.566Z,0
2023-02-06T04:23:19.495Z,0
2023-02-06T04:24:20.717Z,0
2023-02-06T04:25:20.947Z,0
2023-02-06T04:26:20.862Z,0
2023-02-06T04:27:21.336Z,0
2023-02-06T04:28:22.770Z,0
2023-02-06T04:29:22.758Z,0
2023-02-06T04:30:23.699Z,0
2023-02-06T04:31:25.105Z,0
2023-02-06T04:32:25.605Z,0
2023-02-06T04:33:25.805Z,0
2023-02-06T04:34:26.001Z,0
2023-02-06T04:35:26.931Z,0
2023-02-06T04:36:27.845Z,0
2023-02-06T04:37:28.397Z,0
2023-02-06T04:38:28.605Z,0
2023-02-06T04:39:28.791Z,0
2023-02-06T04:40:28.999Z,0
2023-02-06T04:41:29.922Z,0
2023-02-06T04:42:30.115Z,0
2023-02-06T04:43:30.635Z,0
2023-02-06T04:44:30.329Z,0
2023-02-06T04:45:31.541Z,0
2023-02-06T04:46:32.198Z,0
2023-02-06T04:47:32.239Z,0
2023-02-06T04:48:33.186Z,0
2023-02-06T04:49:33.833Z,0
2023-02-06T04:50:35.051Z,0
2023-02-06T04:51:34.715Z,0
2023-02-06T04:52:35.909Z,0
2023-02-06T04:53:36.531Z,0
2023-02-06T04:54:37.994Z,0
2023-02-06T04:55:38.455Z,0
2023-02-06T04:56:38.426Z,0
2023-02-06T04:57:39.728Z,0
2023-02-06T04:58:39.798Z,0
2023-02-06T04:59:40.035Z,0
2023-02-06T05:00:43.442Z,0
2023-02-06T05:01:41.948Z,0
2023-02-06T05:02:42.611Z,0
2023-02-06T05:03:42.569Z,0
2023-02-06T05:04:43.491Z,0
2023-02-06T05:05:45.231Z,0
2023-02-06T05:06:45.147Z,0
2023-02-06T05:07:46.220Z,0
2023-02-06T05:08:46.412Z,0
2023-02-06T05:09:46.907Z,0
2023-02-06T05:10:46.824Z,0
2023-02-06T05:11:48.087Z,0
2023-02-06T05:12:48.284Z,0
2023-02-06T05:13:48.817Z,0
2023-02-06T05:14:49.096Z,0
2023-02-06T05:15:50.545Z,0
2023-02-06T05:16:49.676Z,0
2023-02-06T05:17:49.794Z,0
2023-02-06T05:18:50.704Z,0
2023-02-06T05:19:51.593Z,0
2023-02-06T05:20:51.021Z,0
2023-02-06T05:21:52.123Z,0
2023-02-06T05:22:52.610Z,0
2023-02-06T05:23:52.818Z,0
2023-02-06T05:24:52.727Z,0
2023-02-06T05:25:53.930Z,0
2023-02-06T05:26:53.848Z,0
2023-02-06T05:27:54.496Z,0
2023-02-06T05:28:55.448Z,0
2023-02-06T05:29:55.428Z,0
2023-02-06T05:30:56.772Z,0
2023-02-06T05:31:57.449Z,0
2023-02-06T05:32:57.949Z,0
2023-02-06T05:33:58.140Z,0
2023-02-06T05:34:58.049Z,0
2023-02-06T05:35:59.254Z,0
2023-02-06T05:36:59.737Z,0
2023-02-06T05:38:00.289Z,0
2023-02-06T05:39:00.777Z,0
2023-02-06T05:40:00.311Z,0
2023-02-06T05:41:01.576Z,0
2023-02-06T05:42:01.770Z,0
2023-02-06T05:43:02.000Z,0
2023-02-06T05:44:03.262Z,0
2023-02-06T05:45:03.227Z,0
2023-02-06T05:46:04.583Z,0
2023-02-06T05:47:04.498Z,0
2023-02-06T05:48:05.310Z,0
2023-02-06T05:49:06.257Z,0
2023-02-06T05:50:06.185Z,0
2023-02-06T05:51:07.417Z,0
2023-02-06T05:52:07.370Z,0
2023-02-06T05:53:07.994Z,0
2023-02-06T05:54:08.615Z,0
2023-02-06T05:55:09.538Z,0
2023-02-06T05:56:09.897Z,0
2023-02-06T05:57:10.547Z,0
2023-02-06T05:58:11.570Z,0
2023-02-06T05:59:11.819Z,0
2023-02-06T06:00:11.800Z,0
2023-02-06T06:01:11.501Z,0
2023-02-06T06:02:12.985Z,0
2023-02-06T06:03:12.632Z,0
2023-02-06T06:04:14.079Z,0
2023-02-06T06:05:14.230Z,0
2023-02-06T06:06:14.146Z,0
2023-02-06T06:07:15.335Z,0
2023-02-06T06:08:15.674Z,0
2023-02-06T06:09:15.882Z,0
2023-02-06T06:10:16.089Z,0
2023-02-06T06:11:18.641Z,0
2023-02-06T06:12:16.545Z,0
2023-02-06T06:13:17.463Z,0
2023-02-06T06:14:18.722Z,0
2023-02-06T06:15:19.026Z,0
2023-02-06T06:16:19.636Z,0
2023-02-06T06:17:19.624Z,0
2023-02-06T06:18:20.080Z,0
2023-02-06T06:19:21.286Z,0
2023-02-06T06:20:21.781Z,0
2023-02-06T06:21:21.703Z,0
2023-02-06T06:22:22.911Z,0
2023-02-06T06:23:22.543Z,0
2023-02-06T06:24:23.921Z,0
2023-02-06T06:25:23.846Z,0
2023-02-06T06:26:24.394Z,0
2023-02-06T06:27:24.624Z,0
2023-02-06T06:28:25.268Z,0
2023-02-06T06:29:25.938Z,0
2023-02-06T06:30:26.227Z,0
2023-02-06T06:31:27.289Z,0
2023-02-06T06:32:26.572Z,0
2023-02-06T06:33:26.348Z,0
2023-02-06T06:34:27.281Z,0
2023-02-06T06:35:27.774Z,0
2023-02-06T06:36:30.953Z,5.63
2023-02-06T06:37:28.441Z,5.63
2023-02-06T06:38:28.455Z,5.63
2023-02-06T06:39:28.393Z,5.63
2023-02-06T06:40:29.304Z,5.63
2023-02-06T06:41:30.209Z,5.63
2023-02-06T06:42:31.478Z,5.63
2023-02-06T06:43:31.402Z,5.63
2023-02-06T06:44:32.967Z,5.63
2023-02-06T06:45:33.748Z,5.63
2023-02-06T06:46:33.798Z,11.25
2023-02-06T06:47:35.007Z,11.25
2023-02-06T06:48:35.080Z,11.25
2023-02-06T06:49:36.297Z,11.25
2023-02-06T06:50:36.856Z,11.25
2023-02-06T06:51:36.561Z,11.25
2023-02-06T06:52:42.105Z,16.88
2023-02-06T06:53:38.317Z,16.88
2023-02-06T06:54:38.539Z,16.88
2023-02-06T06:55:38.772Z,16.88
2023-02-06T06:56:38.407Z,16.88
2023-02-06T06:57:39.924Z,16.88
2023-02-06T06:58:40.243Z,16.88
2023-02-06T06:59:40.921Z,16.88
2023-02-06T07:00:41.251Z,16.88
2023-02-06T07:01:41.402Z,16.88
2023-02-06T07:02:41.325Z,22.5
2023-02-06T07:03:42.928Z,22.5
2023-02-06T07:04:42.840Z,22.5
2023-02-06T07:05:43.722Z,22.5
2023-02-06T07:06:44.668Z,22.5
2023-02-06T07:07:45.825Z,22.5
2023-02-06T07:08:46.147Z,22.5
2023-02-06T07:09:46.816Z,22.5
2023-02-06T07:10:48.033Z,28.13
2023-02-06T07:11:48.530Z,28.13
2023-02-06T07:12:49.023Z,28.13
2023-02-06T07:13:48.676Z,33.75
2023-02-06T07:14:50.113Z,33.75
2023-02-06T07:15:51.068Z,39.38
2023-02-06T07:16:51.659Z,39.38
2023-02-06T07:17:52.148Z,45
2023-02-06T07:18:52.857Z,50.63
2023-02-06T07:19:52.782Z,56.25
2023-02-06T07:20:53.979Z,56.25
2023-02-06T07:21:53.933Z,50.63
2023-02-06T07:22:55.464Z,50.63
2023-02-06T07:23:54.845Z,50.63
2023-02-06T07:24:56.371Z,50.63
2023-02-06T07:25:56.595Z,50.63
2023-02-06T07:26:57.531Z,56.25
2023-02-06T07:27:58.150Z,50.63
2023-02-06T07:28:58.399Z,56.25
2023-02-06T07:29:59.365Z,56.25
2023-02-06T07:31:00.675Z,56.25
2023-02-06T07:32:00.842Z,56.25
2023-02-06T07:33:01.033Z,56.25
2023-02-06T07:34:00.947Z,56.25
2023-02-06T07:35:01.869Z,56.25
2023-02-06T07:36:04.106Z,61.88
2023-02-06T07:37:03.430Z,61.88
2023-02-06T07:38:03.917Z,73.13
2023-02-06T07:39:03.341Z,84.38
2023-02-06T07:40:04.822Z,118.13
2023-02-06T07:41:05.322Z,241.88
2023-02-06T07:42:05.637Z,438.75
2023-02-06T07:43:05.530Z,180
2023-02-06T07:44:06.728Z,90
2023-02-06T07:45:08.012Z,101.25
2023-02-06T07:46:08.580Z,106.88
2023-02-06T07:47:08.926Z,264.38
2023-02-06T07:48:09.119Z,292.5
2023-02-06T07:49:09.206Z,275.63
2023-02-06T07:50:10.109Z,213.75
2023-02-06T07:51:10.754Z,360
2023-02-06T07:52:11.407Z,489.38
2023-02-06T07:53:12.936Z,354.38
2023-02-06T07:54:13.214Z,303.75
2023-02-06T07:55:12.860Z,382.5
2023-02-06T07:56:14.365Z,393.75
2023-02-06T07:57:14.288Z,568.13
2023-02-06T07:58:15.502Z,753.75
2023-02-06T07:59:15.513Z,748.13
2023-02-06T08:00:16.865Z,641.25
2023-02-06T08:01:17.500Z,793.13
2023-02-06T08:02:17.777Z,675
2023-02-06T08:03:18.017Z,450
2023-02-06T08:04:18.484Z,607.5
2023-02-06T08:05:19.167Z,607.5
2023-02-06T08:06:18.800Z,433.13
2023-02-06T08:07:20.009Z,348.75
2023-02-06T08:08:20.222Z,281.25
2023-02-06T08:09:19.674Z,219.38
2023-02-06T08:10:21.054Z,236.25
2023-02-06T08:11:22.276Z,151.88
2023-02-06T08:12:22.694Z,135
2023-02-06T08:13:22.932Z,129.38
2023-02-06T08:14:22.791Z,118.13
2023-02-06T08:15:23.072Z,123.75
2023-02-06T08:16:23.640Z,129.38
2023-02-06T08:17:25.290Z,123.75
2023-02-06T08:18:24.789Z,118.13
2023-02-06T08:19:25.433Z,118.13
2023-02-06T08:20:25.481Z,123.75
2023-02-06T08:21:25.835Z,135
2023-02-06T08:22:26.045Z,146.25
2023-02-06T08:23:26.625Z,151.88
2023-02-06T08:24:26.844Z,157.5
2023-02-06T08:25:27.804Z,174.38
2023-02-06T08:26:28.740Z,157.5
2023-02-06T08:27:29.285Z,157.5
2023-02-06T08:28:29.809Z,151.88
2023-02-06T08:29:29.976Z,146.25
2023-02-06T08:30:31.532Z,135
2023-02-06T08:31:32.645Z,118.13
2023-02-06T08:32:31.684Z,101.25
2023-02-06T08:33:31.882Z,90
2023-02-06T08:34:32.114Z,84.38
2023-02-06T08:35:32.317Z,78.75
2023-02-06T08:36:32.834Z,78.75
2023-02-06T08:37:33.329Z,73.13
2023-02-06T08:38:33.255Z,73.13
2023-02-06T08:39:34.575Z,78.75
2023-02-06T08:40:34.983Z,73.13
2023-02-06T08:41:34.943Z,67.5
2023-02-06T08:42:36.167Z,61.88
2023-02-06T08:43:38.627Z,56.25
2023-02-06T08:44:36.287Z,56.25
2023-02-06T08:45:37.723Z,50.63
2023-02-06T08:46:38.469Z,45
2023-02-06T08:47:38.744Z,45
2023-02-06T08:48:38.932Z,45
2023-02-06T08:49:39.246Z,50.63
2023-02-06T08:50:39.640Z,50.63
2023-02-06T08:51:39.868Z,45
2023-02-06T08:52:40.084Z,45
2023-02-06T08:53:41.303Z,45
2023-02-06T08:54:44.575Z,45
2023-02-06T08:55:42.278Z,45
2023-02-06T08:56:42.823Z,45
2023-02-06T08:57:43.130Z,45
2023-02-06T08:58:44.362Z,45
2023-02-06T08:59:44.128Z,45
2023-02-06T09:00:45.204Z,45
2023-02-06T09:01:46.890Z,45
2023-02-06T09:02:47.372Z,45
2023-02-06T09:03:47.657Z,45
2023-02-06T09:04:47.895Z,45
2023-02-06T09:05:49.091Z,45
2023-02-06T09:06:48.309Z,45
2023-02-06T09:07:49.224Z,45
2023-02-06T09:08:50.145Z,45
2023-02-06T09:09:50.605Z,39.38
2023-02-06T09:10:50.855Z,39.38
2023-02-06T09:11:50.792Z,39.38
2023-02-06T09:12:51.440Z,39.38
2023-02-06T09:13:54.693Z,45
2023-02-06T09:14:53.044Z,45
2023-02-06T09:15:55.291Z,45
2023-02-06T09:16:55.547Z,39.38
2023-02-06T09:17:55.782Z,39.38
2023-02-06T09:18:57.895Z,39.38
2023-02-06T09:19:55.900Z,39.38
2023-02-06T09:20:56.823Z,39.38
2023-02-06T09:21:58.070Z,39.38
2023-02-06T09:22:57.994Z,39.38
2023-02-06T09:23:58.956Z,39.38
2023-02-06T09:25:00.171Z,39.38
2023-02-06T09:26:00.388Z,39.38
2023-02-06T09:27:15.489Z,39.38
2023-02-06T09:28:02.704Z,39.38
2023-02-06T09:29:00.952Z,39.38
2023-02-06T09:30:01.420Z,39.38
2023-02-06T09:31:03.050Z,39.38
2023-02-06T09:32:03.449Z,39.38
2023-02-06T09:33:03.532Z,39.38
2023-02-06T09:34:04.785Z,39.38
2023-02-06T09:35:06.160Z,39.38
2023-02-06T09:36:05.455Z,39.38
2023-02-06T09:37:05.720Z,39.38
2023-02-06T09:38:06.226Z,39.38
2023-02-06T09:39:06.452Z,45
2023-02-06T09:40:06.482Z,45
2023-02-06T09:41:07.182Z,45
2023-02-06T09:42:08.390Z,45
2023-02-06T09:43:08.324Z,45
2023-02-06T09:44:09.302Z,45
2023-02-06T09:45:09.231Z,45
2023-02-06T09:46:10.576Z,45
2023-02-06T09:47:10.879Z,45
2023-02-06T09:48:11.144Z,45
2023-02-06T09:49:11.342Z,45
2023-02-06T09:50:11.410Z,45
2023-02-06T09:51:12.039Z,45
2023-02-06T09:52:13.281Z,45
2023-02-06T09:53:13.505Z,45
2023-02-06T09:54:13.917Z,45
2023-02-06T09:55:14.405Z,45
2023-02-06T09:56:14.612Z,45
2023-02-06T09:57:14.543Z,45
2023-02-06T09:58:15.738Z,45
2023-02-06T09:59:17.635Z,45
2023-02-06T10:00:17.139Z,45
2023-02-06T10:01:17.771Z,45
2023-02-06T10:02:18.426Z,45
2023-02-06T10:03:19.340Z,50.63
2023-02-06T10:04:20.147Z,50.63
2023-02-06T10:05:20.151Z,50.63
2023-02-06T10:06:20.485Z,50.63
2023-02-06T10:07:20.848Z,50.63
2023-02-06T10:08:22.336Z,50.63
2023-02-06T10:09:21.976Z,50.63
2023-02-06T10:10:22.701Z,45
2023-02-06T10:11:24.211Z,45
2023-02-06T10:12:24.416Z,45
2023-02-06T10:13:25.423Z,45
2023-02-06T10:14:26.630Z,45
2023-02-06T10:15:27.125Z,45
2023-02-06T10:16:28.849Z,45
2023-02-06T10:17:28.407Z,45
2023-02-06T10:18:28.674Z,45
2023-02-06T10:19:28.895Z,45
2023-02-06T10:20:29.203Z,45
2023-02-06T10:21:29.233Z,45
2023-02-06T10:22:30.450Z,45
2023-02-06T10:23:30.393Z,50.63
2023-02-06T10:24:31.410Z,50.63
2023-02-06T10:25:32.113Z,50.63
2023-02-06T10:26:33.376Z,56.25
2023-02-06T10:27:33.362Z,56.25
2023-02-06T10:28:34.902Z,56.25
2023-02-06T10:29:34.890Z,56.25
2023-02-06T10:30:36.111Z,56.25
2023-02-06T10:31:37.530Z,61.88
2023-02-06T10:32:36.895Z,61.88
2023-02-06T10:33:42.464Z,67.5
2023-02-06T10:34:37.383Z,73.13
2023-02-06T10:35:38.892Z,73.13
2023-02-06T10:36:39.305Z,78.75
2023-02-06T10:37:39.560Z,78.75
2023-02-06T10:38:39.861Z,84.38
2023-02-06T10:39:40.071Z,84.38
2023-02-06T10:40:41.388Z,84.38
2023-02-06T10:41:41.594Z,84.38
2023-02-06T10:42:41.834Z,84.38
2023-02-06T10:43:42.140Z,84.38
2023-02-06T10:44:50.799Z,78.75
2023-02-06T10:45:43.778Z,78.75
2023-02-06T10:46:44.630Z,78.75
2023-02-06T10:47:45.145Z,78.75
2023-02-06T10:48:45.130Z,84.38
2023-02-06T10:49:46.723Z,84.38
2023-02-06T10:50:46.705Z,90
2023-02-06T10:51:47.370Z,95.63
2023-02-06T10:52:48.302Z,95.63
2023-02-06T10:53:49.554Z,95.63
2023-02-06T10:54:50.252Z,95.63
2023-02-06T10:55:53.879Z,90
2023-02-06T10:56:52.021Z,90
2023-02-06T10:57:53.218Z,90
2023-02-06T10:58:54.499Z,90
2023-02-06T10:59:55.084Z,90
2023-02-06T11:00:55.845Z,90
2023-02-06T11:01:58.139Z,90
2023-02-06T11:03:16.108Z,95.63
2023-02-06T11:03:57.362Z,101.25
2023-02-06T11:04:57.631Z,106.88
2023-02-06T11:05:57.950Z,118.13
2023-02-06T11:06:58.219Z,123.75
2023-02-06T11:07:58.924Z,129.38
2023-02-06T11:09:00.103Z,135
2023-02-06T11:10:00.366Z,135
2023-02-06T11:11:01.115Z,151.88
2023-02-06T11:12:03.882Z,174.38
2023-02-06T11:13:01.821Z,213.75
2023-02-06T11:14:02.757Z,225
2023-02-06T11:15:03.468Z,264.38
2023-02-06T11:16:04.466Z,202.5
2023-02-06T11:17:06.102Z,185.63
2023-02-06T11:18:05.858Z,191.25
2023-02-06T11:19:06.901Z,208.13
2023-02-06T11:20:08.431Z,275.63
2023-02-06T11:21:12.133Z,365.63
2023-02-06T11:22:09.719Z,540
2023-02-06T11:23:10.283Z,1057.5
2023-02-06T11:24:10.501Z,1220.63
2023-02-06T11:25:10.763Z,1153.13
2023-02-06T11:26:11.420Z,1029.38
2023-02-06T11:27:12.666Z,596.25
2023-02-06T11:28:14.049Z,1023.75
2023-02-06T11:29:14.011Z,1355.63
2023-02-06T11:30:13.984Z,1350
2023-02-06T11:31:14.829Z,1057.5
2023-02-06T11:32:15.491Z,450
2023-02-06T11:33:21.708Z,703.13
2023-02-06T11:34:16.253Z,691.88
2023-02-06T11:35:16.451Z,241.88
2023-02-06T11:36:16.819Z,191.25
2023-02-06T11:37:17.762Z,168.75
2023-02-06T11:38:18.259Z,168.75
2023-02-06T11:39:18.206Z,163.13
2023-02-06T11:40:18.970Z,157.5
2023-02-06T11:41:20.249Z,157.5
2023-02-06T11:42:20.467Z,157.5
2023-02-06T11:43:21.124Z,157.5
2023-02-06T11:44:22.649Z,140.63
2023-02-06T11:45:22.591Z,123.75
2023-02-06T11:46:24.326Z,118.13
2023-02-06T11:47:24.731Z,112.5
2023-02-06T11:48:25.080Z,106.88
2023-02-06T11:49:25.419Z,95.63
2023-02-06T11:50:25.913Z,90
2023-02-06T11:51:26.233Z,84.38
2023-02-06T11:52:26.719Z,84.38
2023-02-06T11:53:26.975Z,73.13
2023-02-06T11:54:26.908Z,73.13
2023-02-06T11:55:28.148Z,67.5
2023-02-06T11:56:28.393Z,67.5
2023-02-06T11:57:28.664Z,61.88
2023-02-06T11:58:28.298Z,61.88
2023-02-06T11:59:28.961Z,56.25
2023-02-06T12:00:30.232Z,56.25
2023-02-06T12:01:30.847Z,50.63
2023-02-06T12:02:31.205Z,56.25
2023-02-06T12:03:31.869Z,56.25
2023-02-06T12:04:32.192Z,56.25
2023-02-06T12:05:32.150Z,50.63
2023-02-06T12:06:33.097Z,50.63
2023-02-06T12:07:34.064Z,45
2023-02-06T12:08:34.740Z,45
2023-02-06T12:09:35.715Z,39.38
2023-02-06T12:10:36.947Z,39.38
2023-02-06T12:11:37.561Z,39.38
2023-02-06T12:12:37.844Z,39.38
2023-02-06T12:13:38.065Z,39.38
2023-02-06T12:14:39.280Z,39.38
2023-02-06T12:16:02.525Z,39.38
2023-02-06T12:16:40.942Z,39.38
2023-02-06T12:17:40.926Z,39.38
2023-02-06T12:18:41.378Z,45
2023-02-06T12:19:42.906Z,45
2023-02-06T12:20:43.224Z,45
2023-02-06T12:21:43.031Z,45
2023-02-06T12:22:43.990Z,45
2023-02-06T12:23:45.488Z,39.38
2023-02-06T12:24:44.551Z,39.38
2023-02-06T12:25:47.411Z,39.38
2023-02-06T12:26:46.618Z,39.38
2023-02-06T12:27:50.088Z,39.38
2023-02-06T12:28:47.319Z,39.38
2023-02-06T12:29:47.515Z,39.38
2023-02-06T12:30:48.047Z,33.75
2023-02-06T12:31:50.212Z,33.75
2023-02-06T12:32:49.712Z,33.75
2023-02-06T12:33:49.970Z,33.75
2023-02-06T12:34:50.723Z,33.75
2023-02-06T12:35:52.268Z,33.75
2023-02-06T12:36:52.458Z,33.75
2023-02-06T12:37:53.698Z,33.75
2023-02-06T12:38:53.932Z,33.75
2023-02-06T12:39:54.480Z,39.38
2023-02-06T12:40:54.739Z,39.38
2023-02-06T12:41:54.485Z,33.75
2023-02-06T12:42:55.754Z,33.75
2023-02-06T12:43:56.021Z,33.75
2023-02-06T12:44:56.715Z,28.13
2023-02-06T12:45:58.353Z,28.13
2023-02-06T12:46:58.306Z,28.13
2023-02-06T12:47:59.894Z,28.13
2023-02-06T12:49:00.410Z,28.13
2023-02-06T12:50:00.412Z,28.13
2023-02-06T12:51:01.634Z,28.13
2023-02-06T12:52:02.034Z,22.5
2023-02-06T12:53:02.723Z,22.5
2023-02-06T12:54:04.023Z,22.5
2023-02-06T12:55:03.942Z,22.5
2023-02-06T12:56:06.255Z,22.5
2023-02-06T12:57:05.210Z,22.5
2023-02-06T12:58:06.428Z,22.5
2023-02-06T12:59:07.555Z,22.5
2023-02-06T13:00:14.250Z,22.5
2023-02-06T13:01:12.040Z,22.5
2023-02-06T13:02:09.914Z,22.5
2023-02-06T13:03:10.720Z,22.5
2023-02-06T13:04:11.323Z,22.5
2023-02-06T13:05:11.641Z,22.5
2023-02-06T13:06:11.690Z,28.13
2023-02-06T13:07:12.634Z,28.13
2023-02-06T13:08:13.874Z,28.13
2023-02-06T13:09:14.183Z,28.13
2023-02-06T13:10:14.465Z,28.13
2023-02-06T13:11:14.701Z,28.13
2023-02-06T13:12:15.760Z,28.13
2023-02-06T13:13:16.304Z,28.13
2023-02-06T13:14:16.226Z,28.13
2023-02-06T13:15:17.199Z,28.13
2023-02-06T13:16:18.717Z,28.13
2023-02-06T13:17:19.052Z,28.13
2023-02-06T13:18:19.358Z,28.13
2023-02-06T13:19:19.601Z,33.75
2023-02-06T13:20:20.639Z,33.75
2023-02-06T13:21:21.140Z,28.13
2023-02-06T13:22:21.958Z,28.13
2023-02-06T13:23:21.879Z,28.13
2023-02-06T13:24:22.805Z,22.5
2023-02-06T13:25:24.474Z,22.5
2023-02-06T13:26:23.396Z,22.5
2023-02-06T13:27:24.038Z,22.5
2023-02-06T13:28:23.625Z,22.5
2023-02-06T13:29:24.494Z,22.5
2023-02-06T13:30:25.593Z,22.5
2023-02-06T13:31:28.148Z,22.5
2023-02-06T13:32:26.658Z,22.5
2023-02-06T13:33:26.925Z,22.5
2023-02-06T13:34:26.873Z,22.5
2023-02-06T13:35:28.167Z,22.5
2023-02-06T13:36:28.672Z,22.5
2023-02-06T13:37:29.183Z,22.5
2023-02-06T13:38:29.444Z,16.88
2023-02-06T13:39:29.098Z,16.88
2023-02-06T13:40:29.813Z,16.88
2023-02-06T13:41:30.528Z,16.88
2023-02-06T13:42:31.826Z,16.88
2023-02-06T13:43:32.072Z,16.88
2023-02-06T13:44:32.438Z,16.88
2023-02-06T13:45:33.677Z,16.88
2023-02-06T13:46:34.151Z,16.88
2023-02-06T13:47:34.352Z,16.88
2023-02-06T13:48:34.892Z,16.88
2023-02-06T13:49:35.417Z,16.88
2023-02-06T13:50:35.402Z,16.88
2023-02-06T13:51:36.894Z,16.88
2023-02-06T13:52:36.944Z,16.88
2023-02-06T13:53:38.168Z,16.88
2023-02-06T13:54:38.377Z,16.88
2023-02-06T13:55:39.648Z,16.88
2023-02-06T13:56:39.841Z,16.88
2023-02-06T13:57:39.845Z,16.88
2023-02-06T13:58:40.778Z,16.88